Time;durP1;ratioP1;P1;durP2;ratioP2;P2;SDS_P1;SDS_P2;PMS_P1;PMS_P2;Temp;Humidity;BMP_temperature;BMP_pressure;BME280_temperature;BME280_humidity;BME280_pressure;Samples;Min_cycle;Max_cycle;Signal;HPM_P1;HPM_P2
2021/12/12 00:02:21;;;;;;;180.80;85.95;;;;;;;0.61;97.62;99512.64;4184458;83;21103;-88
2021/12/12 00:08:21;;;;;;;192.37;88.15;;;;;;;0.59;97.33;99532.37;4186423;83;21032;-86
2021/12/12 00:14:29;;;;;;;175.73;82.53;;;;;;;0.45;97.39;99531.54;4184308;83;21080;-87
2021/12/12 00:20:33;;;;;;;158.52;75.80;;;;;;;0.45;97.39;99542.31;4176924;83;21100;-86
2021/12/12 00:26:34;;;;;;;175.72;85.38;;;;;;;0.36;97.38;99550.79;4176045;83;22339;-87
2021/12/12 00:32:39;;;;;;;187.05;87.50;;;;;;;0.39;97.62;99556.16;4176102;83;21102;-87
2021/12/12 00:38:41;;;;;;;171.22;83.78;;;;;;;0.49;97.84;99566.73;4181133;83;21107;-87
2021/12/12 00:44:47;;;;;;;170.80;84.17;;;;;;;0.38;97.52;99568.00;4082229;85;21090;-86
2021/12/12 00:50:50;;;;;;;172.22;85.38;;;;;;;0.46;97.79;99564.64;4169838;83;21602;-86
2021/12/12 00:56:51;;;;;;;185.07;91.05;;;;;;;0.55;97.78;99574.45;4002701;87;21625;-86
2021/12/12 01:02:56;;;;;;;181.32;87.10;;;;;;;0.62;97.55;99574.07;4079939;86;21142;-85
2021/12/12 01:09:02;;;;;;;170.10;84.80;;;;;;;0.61;97.38;99587.30;4059131;86;21148;-87
2021/12/12 01:15:18;;;;;;;166.28;82.15;;;;;;;0.39;97.07;99587.13;4098757;83;21689;-87
2021/12/12 01:21:27;;;;;;;174.03;83.10;;;;;;;0.31;97.47;99574.33;4215589;83;21086;-86
2021/12/12 01:27:29;;;;;;;162.45;75.37;;;;;;;0.42;97.77;99585.19;4229001;83;21216;-86
2021/12/12 01:33:34;;;;;;;158.78;77.37;;;;;;;0.42;97.28;99574.41;4224073;83;21070;-86
2021/12/12 01:39:42;;;;;;;151.57;74.47;;;;;;;0.22;97.17;99583.60;4230119;83;21099;-85
2021/12/12 01:45:48;;;;;;;167.75;76.92;;;;;;;0.23;97.17;99590.61;4226310;83;21091;-86
2021/12/12 01:51:50;;;;;;;201.30;93.85;;;;;;;0.26;97.33;99597.29;4224025;83;21047;-87
2021/12/12 01:57:57;;;;;;;195.25;97.53;;;;;;;0.20;97.34;99595.23;4228977;83;21107;-86
2021/12/12 02:04:04;;;;;;;201.65;95.72;;;;;;;0.28;97.52;99584.34;4227926;83;21618;-87
2021/12/12 02:10:14;;;;;;;198.50;98.33;;;;;;;0.35;97.33;99587.45;4224390;83;21051;-90
2021/12/12 02:16:17;;;;;;;189.62;95.55;;;;;;;0.34;97.42;99593.39;4226194;83;21078;-86
2021/12/12 02:22:43;;;;;;;201.12;92.02;;;;;;;0.36;97.50;99589.06;4223217;83;21062;-88
2021/12/12 02:35:08;;;;;;;166.53;79.10;;;;;;;0.41;97.18;99602.45;4153990;84;21028;-86
2021/12/12 02:41:10;;;;;;;167.03;78.35;;;;;;;0.31;96.68;99602.06;4159872;84;21100;-87
2021/12/12 02:47:18;;;;;;;169.87;77.15;;;;;;;0.25;96.68;99605.13;4160835;84;21055;-85
2021/12/12 02:53:26;;;;;;;169.53;81.95;;;;;;;0.24;96.68;99607.55;4160576;84;21162;-86
2021/12/12 02:59:28;;;;;;;167.53;80.53;;;;;;;0.23;96.78;99623.45;4164064;84;21099;-86
2021/12/12 03:05:35;;;;;;;171.25;85.65;;;;;;;0.23;96.78;99623.45;4159481;84;21021;-86
2021/12/12 03:11:37;;;;;;;172.82;82.15;;;;;;;0.24;96.76;99624.51;4159100;84;22520;-86
2021/12/12 03:17:39;;;;;;;163.43;77.25;;;;;;;0.25;96.77;99631.48;4165479;84;21143;-86
2021/12/12 03:23:46;;;;;;;165.15;78.60;;;;;;;0.23;96.51;99638.27;4161236;84;21088;-85
2021/12/12 03:29:50;;;;;;;155.55;75.03;;;;;;;0.20;96.53;99642.36;4163604;84;21072;-87
2021/12/12 03:35:54;;;;;;;159.35;73.50;;;;;;;0.19;96.77;99644.77;4156454;84;20989;-87
2021/12/12 03:41:59;;;;;;;161.03;78.33;;;;;;;0.21;96.56;99645.83;4144878;84;21085;-85
2021/12/12 03:48:06;;;;;;;153.20;73.05;;;;;;;0.23;96.64;99651.19;4161603;84;21659;-85
2021/12/12 03:54:10;;;;;;;151.27;72.37;;;;;;;0.22;96.53;99651.48;4155665;84;21114;-85
2021/12/12 04:00:23;;;;;;;143.05;69.95;;;;;;;0.23;96.50;99663.84;4145371;84;21030;-86
2021/12/12 04:06:29;;;;;;;147.10;71.25;;;;;;;0.24;96.49;99662.74;4149807;84;21124;-86
2021/12/12 04:12:31;;;;;;;141.03;68.83;;;;;;;0.22;96.47;99663.03;4150397;84;21664;-86
2021/12/12 04:18:32;;;;;;;149.00;73.10;;;;;;;0.19;96.25;99665.53;4239430;83;21083;-86
2021/12/12 04:24:39;;;;;;;143.85;68.35;;;;;;;0.22;96.61;99663.03;4239282;83;21067;-86
2021/12/12 04:30:41;;;;;;;143.07;68.35;;;;;;;0.15;96.30;99660.45;4233183;83;21669;-87
2021/12/12 04:36:46;;;;;;;161.70;72.15;;;;;;;0.15;96.30;99660.45;4237950;83;21637;-86
2021/12/12 04:42:51;;;;;;;144.77;71.02;;;;;;;0.13;96.16;99659.41;4245720;83;21050;-88
2021/12/12 04:55:29;;;;;;;134.57;67.35;;;;;;;0.21;96.40;99669.52;4248973;83;21066;-87
2021/12/12 05:01:38;;;;;;;135.72;68.33;;;;;;;0.23;96.28;99689.42;4236375;83;21012;-85
2021/12/12 05:08:00;;;;;;;131.55;64.05;;;;;;;0.07;96.05;99704.17;4224929;83;21058;-85
2021/12/12 05:14:12;;;;;;;122.60;59.67;;;;;;;0.06;95.98;99709.31;4239534;83;21590;-87
2021/12/12 05:20:28;;;;;;;130.35;61.37;;;;;;;-0.01;95.77;99718.55;4171566;83;21094;-86
2021/12/12 05:26:41;;;;;;;139.10;62.03;;;;;;;-0.05;95.97;99726.92;4173864;83;21508;-87
2021/12/12 05:32:43;;;;;;;128.57;62.90;;;;;;;-0.07;95.90;99742.58;4172145;83;21084;-85
2021/12/12 05:38:48;;;;;;;133.65;63.78;;;;;;;-0.09;95.69;99750.13;4173233;83;21440;-85
2021/12/12 05:44:51;;;;;;;132.43;63.40;;;;;;;-0.08;95.84;99754.98;4175045;83;21467;-85
2021/12/12 05:50:52;;;;;;;144.28;66.35;;;;;;;-0.05;95.89;99764.61;4169898;83;21688;-84
2021/12/12 05:56:54;;;;;;;154.57;68.62;;;;;;;-0.05;95.89;99764.61;4077921;86;21159;-84
2021/12/12 06:02:56;;;;;;;137.70;60.83;;;;;;;0.05;96.04;99769.07;4177285;83;21080;-83
2021/12/12 06:09:01;;;;;;;135.72;65.60;;;;;;;-0.01;95.62;99763.50;4174334;83;21727;-84
2021/12/12 06:15:10;;;;;;;123.90;57.78;;;;;;;-0.10;96.09;99768.73;4081200;86;21054;-85
2021/12/12 06:21:13;;;;;;;142.35;65.20;;;;;;;-0.12;95.82;99769.55;4181523;83;21049;-84
2021/12/12 06:27:18;;;;;;;134.75;64.50;;;;;;;-0.12;96.21;99784.34;4183282;83;21139;-86
2021/12/12 06:33:21;;;;;;;129.82;65.08;;;;;;;0.05;96.24;99789.83;4178252;83;21099;-86
2021/12/12 06:39:24;;;;;;;135.30;62.83;;;;;;;0.02;95.67;99791.75;4189950;83;21107;-83
2021/12/12 06:45:26;;;;;;;144.90;63.17;;;;;;;0.00;95.96;99787.43;4173621;83;21076;-84
2021/12/12 06:51:28;;;;;;;130.75;63.15;;;;;;;0.01;95.99;99782.86;4171673;84;21055;-84
2021/12/12 06:57:30;;;;;;;128.57;59.27;;;;;;;-0.13;95.96;99756.38;4214090;84;21615;-84
2021/12/12 07:03:32;;;;;;;124.20;59.67;;;;;;;0.01;95.79;99784.20;4249773;82;21543;-84
2021/12/12 07:09:36;;;;;;;122.35;58.40;;;;;;;-0.11;95.74;99763.63;4186203;83;21804;-82
2021/12/12 07:15:43;;;;;;;116.00;55.48;;;;;;;0.04;95.67;99771.52;4182769;83;21056;-85
2021/12/12 07:21:45;;;;;;;118.47;54.15;;;;;;;0.07;95.66;99764.21;4205257;83;21131;-85
2021/12/12 07:27:51;;;;;;;122.05;57.60;;;;;;;0.08;95.78;99769.84;4204343;83;21048;-84
2021/12/12 07:33:57;;;;;;;118.75;57.30;;;;;;;0.07;95.67;99779.02;4204836;83;21075;-86
2021/12/12 07:39:59;;;;;;;118.90;54.80;;;;;;;0.13;95.74;99775.70;4204077;83;21079;-85
2021/12/12 07:46:03;;;;;;;110.92;54.80;;;;;;;0.19;95.62;99780.74;4206239;83;21091;-84
2021/12/12 07:52:09;;;;;;;129.38;59.25;;;;;;;0.26;95.43;99769.09;4178770;83;21054;-84
2021/12/12 07:58:15;;;;;;;118.08;57.20;;;;;;;0.28;95.27;99778.23;4206212;83;21092;-84
2021/12/12 08:04:21;;;;;;;123.47;56.83;;;;;;;0.29;95.34;99786.55;4205048;83;21071;-85
2021/12/12 08:10:23;;;;;;;124.45;57.58;;;;;;;0.30;95.10;99787.61;4206530;83;21138;-86
2021/12/12 08:16:25;;;;;;;106.10;49.48;;;;;;;0.37;95.22;99785.91;4202492;83;21052;-86
2021/12/12 08:22:27;;;;;;;117.22;53.83;;;;;;;0.49;95.03;99792.48;4204561;83;21022;-85
2021/12/12 08:28:30;;;;;;;116.55;53.70;;;;;;;0.37;94.89;99798.03;4204508;83;21064;-84
2021/12/12 08:34:31;;;;;;;109.25;54.95;;;;;;;0.48;95.07;99792.77;4207646;83;21104;-86
2021/12/12 08:40:38;;;;;;;117.40;55.25;;;;;;;0.61;94.91;99797.45;4203875;83;21641;-86
2021/12/12 08:46:45;;;;;;;115.75;53.75;;;;;;;0.69;94.67;99811.06;4202464;83;21149;-86
2021/12/12 08:52:49;;;;;;;114.50;56.15;;;;;;;0.71;94.66;99816.16;4206974;83;21136;-89
2021/12/12 08:58:51;;;;;;;116.30;55.65;;;;;;;0.71;94.43;99804.03;4203826;83;21095;-86
2021/12/12 09:04:58;;;;;;;114.60;55.45;;;;;;;0.82;94.58;99800.11;4204253;83;21081;-85
2021/12/12 09:11:14;;;;;;;122.13;57.20;;;;;;;1.02;94.73;99795.22;4201260;83;21116;-86
2021/12/12 09:17:32;;;;;;;110.87;54.57;;;;;;;1.07;94.28;99795.15;4202564;83;21060;-86
2021/12/12 09:23:49;;;;;;;122.35;61.63;;;;;;;1.07;94.11;99790.30;4204521;83;21958;-86
2021/12/12 09:30:05;;;;;;;126.58;61.53;;;;;;;1.53;94.85;99779.80;4199056;83;21063;-86
2021/12/12 09:36:12;;;;;;;90.77;47.80;;;;;;;2.26;94.92;99778.95;4185690;83;21333;-85
2021/12/12 09:42:34;;;;;;;111.70;58.20;;;;;;;2.75;93.97;99780.33;4179434;83;21086;-85
2021/12/12 09:55:09;;;;;;;101.75;50.45;;;;;;;3.47;92.25;99774.27;4183666;83;21060;-86
2021/12/12 10:01:19;;;;;;;104.23;54.05;;;;;;;3.40;91.55;99772.00;4183936;83;21033;-85
2021/12/12 10:07:28;;;;;;;114.30;56.92;;;;;;;3.40;91.91;99760.39;4172661;83;21028;-89
2021/12/12 10:13:42;;;;;;;100.22;54.90;;;;;;;3.72;91.37;99751.95;4170174;83;21111;-86
2021/12/12 10:20:01;;;;;;;114.67;55.85;;;;;;;3.99;91.37;99755.28;4182497;83;21139;-86
2021/12/12 10:26:15;;;;;;;108.35;55.03;;;;;;;4.09;91.19;99763.66;4182705;83;21561;-86
2021/12/12 10:32:25;;;;;;;112.15;58.63;;;;;;;4.32;90.11;99763.25;4179904;83;21111;-87
2021/12/12 10:38:47;;;;;;;112.20;56.98;;;;;;;4.33;90.34;99755.38;4175370;83;21016;-86
2021/12/12 10:44:57;;;;;;;117.93;60.43;;;;;;;4.40;89.84;99758.98;4165065;83;21517;-88
2021/12/12 10:51:06;;;;;;;103.12;53.60;;;;;;;4.48;89.31;99753.56;4098949;85;21112;-90
2021/12/12 10:57:16;;;;;;;103.45;54.33;;;;;;;4.32;88.75;99758.41;4061642;86;22021;-88
2021/12/12 11:03:36;;;;;;;109.37;53.35;;;;;;;4.21;88.63;99756.52;4057698;86;22090;-87
2021/12/12 11:10:20;;;;;;;101.67;53.02;;;;;;;4.04;88.22;99752.41;4058174;86;21017;-90
2021/12/12 11:16:54;;;;;;;87.55;46.30;;;;;;;3.98;88.25;99744.73;4059195;86;21492;-86
2021/12/12 11:23:01;;;;;;;87.95;46.40;;;;;;;4.01;88.40;99740.84;4079380;86;21668;-87
2021/12/12 11:29:15;;;;;;;92.78;47.35;;;;;;;3.91;87.73;99734.92;4080156;86;21051;-87
2021/12/12 11:35:21;;;;;;;81.20;43.65;;;;;;;3.71;87.36;99728.70;4077558;86;21127;-88
2021/12/12 11:41:40;;;;;;;79.58;43.80;;;;;;;3.69;87.59;99721.44;4077251;86;21112;-86
2021/12/12 11:48:10;;;;;;;97.27;49.85;;;;;;;3.64;87.42;99719.67;4049955;86;21095;-86
2021/12/12 11:54:45;;;;;;;97.47;49.95;;;;;;;3.64;86.99;99717.51;4078999;86;21072;-87
2021/12/12 12:01:24;;;;;;;96.57;47.70;;;;;;;3.50;86.97;99715.45;4080521;86;21060;-87
2021/12/12 12:07:46;;;;;;;93.30;48.42;;;;;;;3.36;86.89;99726.37;4074316;86;21102;-87
2021/12/12 12:14:12;;;;;;;92.78;47.48;;;;;;;3.27;86.97;99739.06;4066741;86;21040;-87
2021/12/12 12:20:25;;;;;;;90.72;44.70;;;;;;;3.07;86.72;99728.72;4071533;85;21070;-87
2021/12/12 12:27:02;;;;;;;100.53;49.27;;;;;;;3.02;86.72;99737.76;4087915;86;21094;-86
2021/12/12 12:33:44;;;;;;;92.27;47.78;;;;;;;3.00;86.80;99740.53;4005577;87;21034;-89
2021/12/12 12:40:35;;;;;;;83.65;41.65;;;;;;;2.93;86.75;99745.02;4016474;87;21188;-86
2021/12/12 12:47:34;;;;;;;114.12;56.77;;;;;;;2.79;86.35;99747.52;4013654;86;21167;-87
2021/12/12 12:54:13;;;;;;;95.97;49.27;;;;;;;2.47;85.93;99746.36;4020656;87;21084;-86
2021/12/12 13:00:19;;;;;;;86.80;41.42;;;;;;;2.34;86.01;99745.83;4127920;85;21094;-87
2021/12/12 13:07:01;;;;;;;76.43;38.87;;;;;;;2.18;85.95;99739.95;4151853;84;21036;-85
2021/12/12 13:13:30;;;;;;;85.00;41.15;;;;;;;2.06;86.02;99746.95;4154360;84;21056;-86
2021/12/12 13:19:58;;;;;;;80.75;40.78;;;;;;;1.97;85.96;99769.02;4106230;84;21101;-88
2021/12/12 13:26:08;;;;;;;80.65;40.43;;;;;;;1.88;85.83;99773.52;4172080;84;21897;-86
2021/12/12 13:32:27;;;;;;;76.07;39.78;;;;;;;1.78;85.99;99766.95;4146599;84;21085;-85
2021/12/12 13:39:07;;;;;;;82.50;41.68;;;;;;;1.74;86.05;99786.20;4230328;83;21078;-87
2021/12/12 13:45:28;;;;;;;78.90;38.98;;;;;;;1.70;86.01;99787.87;4232748;83;21548;-85
2021/12/12 13:51:53;;;;;;;81.00;38.53;;;;;;;1.63;85.79;99786.38;4234999;83;21050;-87
2021/12/12 13:58:43;;;;;;;80.30;37.60;;;;;;;1.51;85.73;99795.50;4238853;83;21561;-86
2021/12/12 14:05:20;;;;;;;89.17;41.05;;;;;;;1.40;86.00;99787.87;4248199;83;21593;-88
2021/12/12 14:11:27;;;;;;;96.85;46.20;;;;;;;1.29;85.69;99802.08;4232083;83;21074;-89
2021/12/12 14:17:53;;;;;;;118.80;53.80;;;;;;;0.97;85.70;99805.30;4230070;83;21098;-88
2021/12/12 14:23:55;;;;;;;131.10;53.40;;;;;;;0.79;85.82;99817.67;4239451;83;21061;-86
2021/12/12 14:29:59;;;;;;;112.00;52.10;;;;;;;0.65;85.79;99826.76;4238797;83;21175;-85
2021/12/12 14:36:08;;;;;;;141.73;56.10;;;;;;;0.44;85.78;99828.13;4227946;83;21108;-85
2021/12/12 14:42:24;;;;;;;116.40;48.00;;;;;;;0.24;85.70;99828.34;4236894;83;21091;-86
2021/12/12 14:48:29;;;;;;;109.20;46.92;;;;;;;-0.02;85.76;99835.36;4233990;83;21071;-85
2021/12/12 14:54:39;;;;;;;103.42;45.23;;;;;;;-0.24;85.85;99843.68;4228669;83;21087;-86
2021/12/12 15:00:49;;;;;;;96.95;43.08;;;;;;;-0.42;85.88;99852.44;4235209;83;21066;-86
2021/12/12 15:06:59;;;;;;;96.17;41.90;;;;;;;-0.56;86.17;99861.70;4229682;83;21586;-86
2021/12/12 15:13:05;;;;;;;103.95;43.33;;;;;;;-0.67;86.06;99866.91;4175218;83;21135;-85
2021/12/12 15:19:14;;;;;;;92.70;40.28;;;;;;;-0.91;86.40;99848.52;4156413;84;21104;-85
2021/12/12 15:25:21;;;;;;;90.50;40.57;;;;;;;-0.84;86.38;99880.47;4231870;82;22340;-84
2021/12/12 15:31:50;;;;;;;89.17;39.98;;;;;;;-0.95;86.40;99881.08;4226579;83;21551;-85
2021/12/12 15:37:52;;;;;;;95.97;42.23;;;;;;;-1.03;86.71;99884.88;4235254;83;21058;-84
2021/12/12 15:44:04;;;;;;;88.35;39.30;;;;;;;-1.05;86.77;99893.22;4225877;83;21523;-84
2021/12/12 15:50:14;;;;;;;94.90;40.03;;;;;;;-1.08;86.86;99893.78;4227765;83;21079;-83
2021/12/12 15:56:23;;;;;;;95.03;42.60;;;;;;;-1.13;86.81;99896.52;4236022;83;21093;-84
2021/12/12 16:02:29;;;;;;;91.27;43.30;;;;;;;-1.22;86.49;99905.42;4238805;83;21130;-83
2021/12/12 16:08:42;;;;;;;243.78;118.47;;;;;;;-1.38;86.87;99900.66;4227086;83;21082;-83
2021/12/12 16:14:48;;;;;;;224.70;110.50;;;;;;;-1.36;87.38;99903.86;4143790;84;21118;-85
2021/12/12 16:20:51;;;;;;;128.23;57.50;;;;;;;-1.34;87.09;99904.92;4161133;84;21073;-85
2021/12/12 16:26:53;;;;;;;118.57;54.77;;;;;;;-1.46;87.25;99905.78;4091459;86;21585;-87
2021/12/12 16:33:00;;;;;;;118.30;55.73;;;;;;;-1.53;86.96;99906.63;4176292;83;21053;-85
2021/12/12 16:39:07;;;;;;;99.10;44.73;;;;;;;-1.70;87.24;99923.04;4176338;83;21095;-84
2021/12/12 16:45:13;;;;;;;88.17;39.30;;;;;;;-1.80;87.34;99911.79;4169406;83;21076;-86
2021/12/12 16:51:35;;;;;;;99.87;42.63;;;;;;;-1.94;87.15;99911.27;4157355;84;21169;-84
2021/12/12 16:57:41;;;;;;;96.13;39.73;;;;;;;-2.07;87.23;99905.92;4172133;83;21567;-84
2021/12/12 17:03:50;;;;;;;90.20;38.50;;;;;;;-2.15;87.63;99913.73;4172522;83;21144;-86
2021/12/12 17:09:56;;;;;;;97.70;41.67;;;;;;;-2.16;88.08;99914.82;4172453;83;21068;-83
2021/12/12 17:15:58;;;;;;;146.30;57.90;;;;;;;-2.14;88.24;99922.03;4169279;83;21060;-84
2021/12/12 17:22:04;;;;;;;142.23;58.20;;;;;;;-2.19;87.31;99912.65;4123403;84;21187;-84
2021/12/12 17:28:11;;;;;;;135.57;53.13;;;;;;;-2.45;87.80;99909.72;4011228;87;22079;-85
2021/12/12 17:34:21;;;;;;;150.27;58.83;;;;;;;-2.52;87.64;99909.19;4005672;87;21088;-83
2021/12/12 17:40:32;;;;;;;154.30;58.13;;;;;;;-2.56;87.97;99906.77;4085855;85;21090;-83
2021/12/12 17:47:07;;;;;;;176.77;70.03;;;;;;;-2.58;88.12;99906.22;4075630;86;21668;-83
2021/12/12 17:53:19;;;;;;;211.83;85.40;;;;;;;-2.59;88.21;99899.25;4075889;86;21164;-87
2021/12/12 17:59:49;;;;;;;218.80;90.93;;;;;;;-2.74;88.48;99896.02;4078225;86;21054;-84
2021/12/12 18:05:58;;;;;;;221.73;86.93;;;;;;;-2.71;88.77;99892.80;4014128;87;22232;-84
2021/12/12 18:12:08;;;;;;;161.27;66.87;;;;;;;-2.63;88.73;99894.17;4090250;86;21160;-85
2021/12/12 18:18:54;;;;;;;202.77;84.57;;;;;;;-2.61;89.03;99899.52;4005703;87;21120;-86
2021/12/12 18:24:58;;;;;;;132.60;58.37;;;;;;;-2.61;89.08;99902.20;4071404;86;21187;-85
2021/12/12 18:31:13;;;;;;;147.97;62.27;;;;;;;-2.61;89.25;99912.92;4072017;86;21108;-85
2021/12/12 18:37:24;;;;;;;170.70;66.70;;;;;;;-2.60;89.23;99910.50;4081209;86;22085;-86
2021/12/12 18:43:34;;;;;;;165.63;66.03;;;;;;;-2.60;89.40;99923.13;4092193;86;21120;-85
2021/12/12 18:49:46;;;;;;;169.53;70.40;;;;;;;-2.64;89.18;99929.55;4133671;84;21035;-85
2021/12/12 18:55:54;;;;;;;166.30;68.07;;;;;;;-2.71;89.31;99927.64;4157983;84;21496;-86
2021/12/12 19:02:00;;;;;;;192.30;83.37;;;;;;;-2.70;89.37;99933.30;4157595;84;21645;-85
2021/12/12 19:08:13;;;;;;;206.17;88.03;;;;;;;-2.75;89.39;99929.26;4160593;84;21038;-86
2021/12/12 19:14:23;;;;;;;177.47;74.43;;;;;;;-2.70;89.70;99924.44;4154799;84;21550;-86
2021/12/12 19:20:26;;;;;;;186.30;83.03;;;;;;;-2.80;89.61;99917.74;4106431;84;21126;-89
2021/12/12 19:26:36;;;;;;;197.40;85.83;;;;;;;-2.83;89.50;99907.52;4075319;86;21079;-86
2021/12/12 19:32:41;;;;;;;166.37;73.93;;;;;;;-2.84;89.57;99911.28;4144541;84;21082;-87
2021/12/12 19:38:45;;;;;;;195.67;80.80;;;;;;;-2.89;89.68;99913.42;4194978;83;21421;-88
2021/12/12 19:44:49;;;;;;;188.30;86.23;;;;;;;-2.94;89.64;99904.03;4179762;84;21059;-89
2021/12/12 19:50:53;;;;;;;189.03;86.57;;;;;;;-2.89;90.18;99915.29;4168020;84;21063;-88
2021/12/12 19:57:02;;;;;;;210.10;87.83;;;;;;;-2.72;90.94;99905.94;4227165;83;21083;-87
2021/12/12 20:03:22;;;;;;;215.10;91.57;;;;;;;-2.56;91.00;99892.02;4202582;83;21052;-87
2021/12/12 20:09:35;;;;;;;214.10;92.67;;;;;;;-2.48;90.80;99884.26;4203413;83;21048;-86
2021/12/12 20:15:39;;;;;;;225.30;98.80;;;;;;;-2.52;90.38;99887.19;4197526;83;21518;-86
2021/12/12 20:21:46;;;;;;;249.20;105.60;;;;;;;-2.59;90.55;99888.01;4184972;83;21041;-87
2021/12/12 20:27:55;;;;;;;239.27;104.63;;;;;;;-2.58;90.63;99888.27;4156614;83;21507;-88
2021/12/12 20:33:58;;;;;;;249.00;105.77;;;;;;;-2.76;90.26;99873.25;4155121;84;21007;-88
2021/12/12 20:40:11;;;;;;;253.50;109.17;;;;;;;-2.85;89.96;99880.22;4140781;84;21067;-87
2021/12/12 20:46:24;;;;;;;273.43;111.93;;;;;;;-2.94;90.48;99884.50;4157305;84;21025;-86
2021/12/12 20:52:36;;;;;;;269.17;114.97;;;;;;;-2.91;90.75;99890.66;4134571;84;21732;-89
2021/12/12 20:58:53;;;;;;;253.00;107.97;;;;;;;-2.91;90.62;99889.32;4239300;83;21040;-89
2021/12/12 21:05:00;;;;;;;232.85;98.30;;;;;;;-2.93;90.64;99898.15;4230443;83;21034;-89
2021/12/12 21:11:06;;;;;;;266.60;114.10;;;;;;;-3.09;89.89;99895.16;4219637;83;21024;-89
2021/12/12 21:17:11;;;;;;;;;;;;;;;-3.44;90.46;99889.97;4242300;83;21003;-89
2021/12/12 21:23:26;;;;;;;297.40;126.43;;;;;;;-3.42;90.64;99888.38;4231471;83;20162;-88
2021/12/12 21:29:32;;;;;;;292.90;125.60;;;;;;;-3.57;90.23;99886.98;4168421;84;21060;-88
2021/12/12 21:35:39;;;;;;;262.67;113.73;;;;;;;-3.74;90.32;99869.77;4097981;86;21111;-87
2021/12/12 21:41:57;;;;;;;262.70;113.30;;;;;;;-3.72;90.42;99871.66;4145330;84;21324;-88
2021/12/12 21:48:09;;;;;;;269.70;119.07;;;;;;;-3.81;90.03;99885.27;4236495;83;21452;-88
2021/12/12 21:54:16;;;;;;;286.03;118.77;;;;;;;-3.86;90.40;99899.12;4244285;83;21902;-88
2021/12/12 22:00:25;;;;;;;287.37;119.53;;;;;;;-3.93;90.37;99907.38;4243176;83;21042;-87
2021/12/12 22:06:32;;;;;;;263.10;112.23;;;;;;;-4.02;90.34;99882.72;4260169;83;21074;-90
2021/12/12 22:12:36;;;;;;;253.00;111.33;;;;;;;-4.03;90.24;99882.45;4247359;83;21035;-86
2021/12/12 22:18:42;;;;;;;273.23;114.17;;;;;;;-3.98;90.28;99873.13;4246409;83;21054;-88
2021/12/12 22:24:55;;;;;;;240.67;99.00;;;;;;;-4.16;90.26;99867.67;4242205;83;21062;-88
2021/12/12 22:31:05;;;;;;;268.50;111.43;;;;;;;-4.23;90.39;99858.27;4244985;83;21046;-88
2021/12/12 22:37:09;;;;;;;242.83;102.00;;;;;;;-4.24;90.40;99850.77;4251848;83;22102;-86
2021/12/12 22:43:14;;;;;;;244.80;98.97;;;;;;;-4.21;90.95;99842.23;4250962;83;21523;-87
2021/12/12 22:49:23;;;;;;;241.73;102.63;;;;;;;-4.27;90.17;99829.09;4250949;83;21078;-87
2021/12/12 22:55:33;;;;;;;229.70;99.10;;;;;;;-4.33;90.88;99826.93;4254838;83;21078;-86
2021/12/12 23:01:48;;;;;;;246.40;99.80;;;;;;;-4.18;91.28;99818.20;4253289;83;21010;-86
2021/12/12 23:07:55;;;;;;;255.32;104.97;;;;;;;-4.07;91.41;99821.20;4246972;83;21065;-87
2021/12/12 23:14:05;;;;;;;222.43;90.80;;;;;;;-4.03;90.89;99826.30;4248341;83;21114;-87
2021/12/12 23:20:14;;;;;;;233.40;97.20;;;;;;;-4.23;89.86;99832.87;4256507;83;21918;-86
2021/12/12 23:26:19;;;;;;;237.43;93.70;;;;;;;-4.41;90.17;99821.25;4159619;84;21056;-85
2021/12/12 23:32:26;;;;;;;251.47;99.83;;;;;;;-4.48;89.77;99828.70;4083764;86;21683;-85
2021/12/12 23:38:33;;;;;;;240.87;99.23;;;;;;;-4.58;89.99;99820.60;4142076;85;21104;-85
2021/12/12 23:50:52;;;;;;;245.10;98.80;;;;;;;-4.74;90.01;99822.91;4152698;84;21144;-87
2021/12/12 23:56:59;;;;;;;205.90;83.37;;;;;;;-4.95;90.17;99817.93;4151015;84;21100;-87
